Time;durP1;ratioP1;P1;durP2;ratioP2;P2;SDS_P1;SDS_P2;PMS_P1;PMS_P2;Temp;Humidity;BMP_temperature;BMP_pressure;BME280_temperature;BME280_humidity;BME280_pressure;Samples;Min_cycle;Max_cycle;Signal;HPM_P1;HPM_P2
2021/09/14 00:00:49;;;;;;;8.50;3.83;;;12.60;99.90;;;;;;5048776;28;20060;-73
2021/09/14 00:03:14;;;;;;;8.43;3.35;;;12.60;99.90;;;;;;5049692;28;20052;-74
2021/09/14 00:05:40;;;;;;;7.80;3.33;;;12.60;99.90;;;;;;5042795;28;20095;-74
2021/09/14 00:08:06;;;;;;;5.70;3.75;;;12.60;99.90;;;;;;5042774;28;20049;-73
2021/09/14 00:10:31;;;;;;;10.23;4.70;;;12.60;99.90;;;;;;5048365;28;20025;-74
2021/09/14 00:12:57;;;;;;;14.40;4.53;;;12.70;99.90;;;;;;5044529;28;20032;-73
2021/09/14 00:15:22;;;;;;;4.35;3.15;;;12.70;99.90;;;;;;5049469;28;20036;-74
2021/09/14 00:17:48;;;;;;;10.02;3.85;;;12.70;99.90;;;;;;5037943;28;20396;-74
2021/09/14 00:20:13;;;;;;;7.35;3.97;;;12.70;99.90;;;;;;5049201;28;20071;-73
2021/09/14 00:22:38;;;;;;;5.35;3.63;;;12.80;99.90;;;;;;5045498;28;20017;-74
2021/09/14 00:25:04;;;;;;;4.57;3.25;;;12.80;99.90;;;;;;5049544;28;20476;-73
2021/09/14 00:27:30;;;;;;;6.80;3.53;;;12.90;99.90;;;;;;5049556;28;20074;-73
2021/09/14 00:29:55;;;;;;;6.18;3.83;;;12.90;99.90;;;;;;5046740;28;20113;-74
2021/09/14 00:32:21;;;;;;;6.85;3.45;;;12.90;99.90;;;;;;5049222;28;20058;-73
2021/09/14 00:34:46;;;;;;;7.63;3.50;;;12.90;99.90;;;;;;5046312;28;20032;-74
2021/09/14 00:37:12;;;;;;;8.30;3.50;;;12.90;99.90;;;;;;5048587;28;20035;-73
2021/09/14 00:39:37;;;;;;;6.90;3.75;;;12.90;99.90;;;;;;5048963;28;20033;-73
2021/09/14 00:42:03;;;;;;;7.60;3.55;;;12.90;99.90;;;;;;5045063;28;20040;-73
2021/09/14 00:44:28;;;;;;;6.10;3.35;;;12.90;99.90;;;;;;5044756;28;20072;-74
2021/09/14 00:46:54;;;;;;;4.78;3.17;;;12.90;99.90;;;;;;5048421;28;20036;-73
2021/09/14 00:49:19;;;;;;;7.68;3.72;;;12.90;99.90;;;;;;5045117;28;20032;-73
2021/09/14 00:51:45;;;;;;;5.22;3.33;;;12.90;99.90;;;;;;5046332;28;20120;-73
2021/09/14 00:54:15;;;;;;;8.60;3.80;;;12.90;99.90;;;;;;5048581;28;20047;-74
2021/09/14 00:56:41;;;;;;;7.53;3.95;;;12.80;99.90;;;;;;5047580;28;20029;-74
2021/09/14 00:59:07;;;;;;;5.97;3.70;;;12.90;99.90;;;;;;5049463;28;20478;-73
2021/09/14 01:01:33;;;;;;;5.63;3.70;;;12.90;99.90;;;;;;5046874;28;20079;-73
2021/09/14 01:03:58;;;;;;;5.90;3.30;;;12.90;99.90;;;;;;5042644;28;20065;-74
2021/09/14 01:06:24;;;;;;;8.15;4.15;;;12.90;99.90;;;;;;5039164;28;20028;-73
2021/09/14 01:08:51;;;;;;;5.35;3.42;;;12.90;99.90;;;;;;5048325;28;20053;-74
2021/09/14 01:11:17;;;;;;;6.18;3.50;;;12.80;99.90;;;;;;5048227;28;20044;-73
2021/09/14 01:13:43;;;;;;;5.70;3.53;;;12.80;99.90;;;;;;5041555;28;20029;-74
2021/09/14 01:16:12;;;;;;;9.20;3.28;;;12.80;99.90;;;;;;5047139;28;20092;-74
2021/09/14 01:18:39;;;;;;;5.80;3.20;;;12.80;99.90;;;;;;5044576;28;20552;-73
2021/09/14 01:21:04;;;;;;;5.97;3.65;;;12.70;99.90;;;;;;5049148;28;20036;-74
2021/09/14 01:23:30;;;;;;;6.35;3.00;;;12.60;99.90;;;;;;5047076;28;20039;-73
2021/09/14 01:25:56;;;;;;;7.03;3.42;;;12.60;99.90;;;;;;5047609;28;20068;-73
2021/09/14 01:28:21;;;;;;;6.10;3.38;;;12.50;99.90;;;;;;5048962;28;20093;-74
2021/09/14 01:30:47;;;;;;;5.63;3.78;;;12.50;99.90;;;;;;5044631;28;20090;-74
2021/09/14 01:33:15;;;;;;;4.78;2.97;;;12.50;99.90;;;;;;5041438;28;20522;-74
2021/09/14 01:35:41;;;;;;;5.47;3.38;;;12.40;99.90;;;;;;5046676;28;20025;-73
2021/09/14 01:38:06;;;;;;;4.35;2.97;;;12.40;99.90;;;;;;5047246;28;20032;-73
2021/09/14 01:40:32;;;;;;;5.13;3.15;;;12.30;99.90;;;;;;5047880;28;20029;-73
2021/09/14 01:42:57;;;;;;;5.60;3.20;;;12.30;99.90;;;;;;5047377;28;20275;-73
2021/09/14 01:45:23;;;;;;;5.20;3.33;;;12.30;99.90;;;;;;5048237;28;20040;-74
2021/09/14 01:47:48;;;;;;;5.93;3.50;;;12.30;99.90;;;;;;5048053;28;20029;-74
2021/09/14 01:50:16;;;;;;;4.80;3.30;;;12.20;99.90;;;;;;5049652;28;20055;-74
2021/09/14 01:52:41;;;;;;;6.50;3.22;;;12.20;99.90;;;;;;5040005;28;20050;-74
2021/09/14 01:55:11;;;;;;;7.43;3.70;;;12.20;99.90;;;;;;5044069;28;20059;-73
2021/09/14 01:57:39;;;;;;;5.78;3.38;;;12.10;99.90;;;;;;5047281;28;20376;-73
2021/09/14 02:00:15;;;;;;;3.30;2.90;;;12.10;99.90;;;;;;5048658;28;20060;-73
2021/09/14 02:03:03;;;;;;;5.70;3.17;;;12.10;99.90;;;;;;5042507;28;20094;-74
2021/09/14 02:40:56;;;;;;;5.15;2.85;;;11.80;99.90;;;;;;5032378;28;20390;-74
2021/09/14 02:58:38;;;;;;;5.97;2.83;;;11.60;99.90;;;;;;5050499;28;20032;-73
2021/09/14 02:59:42;;;;;;;5.55;3.00;;;11.60;99.90;;;;;;5046385;28;20025;-73
2021/09/14 03:02:08;;;;;;;5.93;2.75;;;11.60;99.90;;;;;;5050030;28;20036;-73
2021/09/14 03:04:34;;;;;;;6.80;3.30;;;11.60;99.90;;;;;;5051111;28;20100;-72
2021/09/14 03:06:59;;;;;;;4.53;2.97;;;11.60;99.90;;;;;;5050723;28;20036;-73
2021/09/14 03:09:25;;;;;;;8.20;3.28;;;11.60;99.90;;;;;;5050563;28;20032;-73
2021/09/14 03:11:50;;;;;;;5.25;3.15;;;11.60;99.90;;;;;;5045851;28;20048;-73
2021/09/14 03:14:15;;;;;;;5.97;2.70;;;11.50;99.90;;;;;;5042825;28;20040;-73
2021/09/14 03:16:41;;;;;;;4.03;2.85;;;11.50;99.90;;;;;;5047761;28;20033;-73
2021/09/14 03:19:06;;;;;;;5.57;2.83;;;11.50;99.90;;;;;;5050431;28;20106;-73
2021/09/14 03:21:32;;;;;;;5.38;2.90;;;11.50;99.90;;;;;;5050342;28;20112;-73
2021/09/14 03:23:58;;;;;;;6.13;2.83;;;11.40;99.90;;;;;;5049549;28;20387;-73
2021/09/14 03:26:24;;;;;;;8.50;2.85;;;11.40;99.90;;;;;;5045013;28;20079;-73
2021/09/14 03:28:49;;;;;;;4.43;2.88;;;11.40;99.90;;;;;;5050004;28;20493;-73
2021/09/14 03:31:18;;;;;;;6.38;2.85;;;11.40;99.90;;;;;;5050694;28;20072;-73
2021/09/14 03:33:44;;;;;;;5.72;2.95;;;11.40;99.90;;;;;;5049760;28;20021;-72
2021/09/14 03:36:10;;;;;;;5.05;2.83;;;11.40;99.90;;;;;;5050594;28;20116;-72
2021/09/14 03:38:35;;;;;;;6.22;3.10;;;11.30;99.90;;;;;;5048869;28;20108;-73
2021/09/14 03:41:01;;;;;;;4.60;2.85;;;11.30;99.90;;;;;;5049386;28;20137;-73
2021/09/14 03:43:26;;;;;;;8.63;3.40;;;11.30;99.90;;;;;;5046577;28;20029;-74
2021/09/14 03:45:52;;;;;;;4.15;2.83;;;11.30;99.90;;;;;;5050122;28;20029;-73
2021/09/14 03:48:17;;;;;;;7.50;3.10;;;11.30;99.90;;;;;;5049658;28;20060;-72
2021/09/14 03:50:43;;;;;;;4.28;3.00;;;11.20;99.90;;;;;;5048402;28;20423;-73
2021/09/14 03:53:09;;;;;;;4.60;3.10;;;11.20;99.90;;;;;;5046307;28;20028;-73
2021/09/14 03:55:34;;;;;;;7.30;2.67;;;11.20;99.90;;;;;;5040079;28;20021;-73
2021/09/14 03:58:00;;;;;;;5.32;2.60;;;11.10;99.90;;;;;;5049817;28;20025;-73
2021/09/14 04:00:26;;;;;;;5.97;2.92;;;11.10;99.90;;;;;;5049207;28;20029;-73
2021/09/14 04:02:57;;;;;;;4.68;2.75;;;11.10;99.90;;;;;;5050263;28;20527;-73
2021/09/14 04:05:34;;;;;;;5.15;2.85;;;11.10;99.90;;;;;;5046854;28;20522;-73
2021/09/14 04:10:35;;;;;;;5.00;2.90;;;11.10;99.90;;;;;;5049059;28;20013;-73
2021/09/14 04:13:01;;;;;;;4.30;2.78;;;11.10;99.90;;;;;;5047888;28;20025;-73
2021/09/14 04:15:26;;;;;;;3.22;2.40;;;11.00;99.90;;;;;;5045839;28;20043;-73
2021/09/14 04:17:52;;;;;;;4.50;2.85;;;11.00;99.90;;;;;;5048165;28;20116;-73
2021/09/14 04:20:17;;;;;;;5.20;2.38;;;11.00;99.90;;;;;;5049646;28;20025;-73
2021/09/14 04:22:43;;;;;;;5.90;3.00;;;11.00;99.90;;;;;;5049680;28;20471;-75
2021/09/14 04:25:09;;;;;;;5.28;2.50;;;11.00;99.90;;;;;;5043388;28;20036;-75
2021/09/14 04:27:35;;;;;;;6.07;2.70;;;11.00;99.90;;;;;;5037890;28;20026;-74
2021/09/14 04:30:00;;;;;;;9.80;3.03;;;10.90;99.90;;;;;;5043533;28;20232;-76
2021/09/14 04:32:26;;;;;;;5.75;2.33;;;10.80;99.90;;;;;;5047696;28;20033;-75
2021/09/14 04:34:51;;;;;;;3.53;2.65;;;10.90;99.90;;;;;;5043363;28;20075;-75
2021/09/14 04:37:17;;;;;;;4.15;2.75;;;10.90;99.90;;;;;;5046682;28;20532;-73
2021/09/14 04:39:42;;;;;;;3.67;2.67;;;10.90;99.90;;;;;;5048087;28;20036;-73
2021/09/14 04:42:08;;;;;;;3.53;2.80;;;10.90;99.90;;;;;;5048408;28;20028;-75
2021/09/14 04:44:33;;;;;;;6.20;2.90;;;10.90;99.90;;;;;;5049314;28;20111;-73
2021/09/14 04:46:58;;;;;;;5.13;2.83;;;10.90;99.90;;;;;;5046273;28;20120;-76
2021/09/14 04:49:24;;;;;;;5.03;3.10;;;10.80;99.90;;;;;;5048698;28;20479;-73
2021/09/14 04:51:49;;;;;;;3.78;2.58;;;10.80;99.90;;;;;;5046392;28;20045;-77
2021/09/14 04:54:15;;;;;;;5.75;3.30;;;10.80;99.90;;;;;;5049313;28;20028;-76
2021/09/14 04:56:40;;;;;;;3.42;2.80;;;10.80;99.90;;;;;;5050161;28;20029;-75
2021/09/14 04:59:06;;;;;;;6.22;3.17;;;10.80;99.90;;;;;;5047803;28;20526;-75
2021/09/14 05:01:31;;;;;;;6.68;2.95;;;10.80;99.90;;;;;;5046554;28;20029;-76
2021/09/14 05:03:57;;;;;;;3.40;2.45;;;10.80;99.90;;;;;;5047509;28;20078;-77
2021/09/14 05:06:23;;;;;;;6.38;2.83;;;10.80;99.90;;;;;;5047546;28;20017;-78
2021/09/14 05:08:48;;;;;;;5.18;3.03;;;10.80;99.90;;;;;;5046291;28;20543;-77
2021/09/14 05:11:13;;;;;;;5.18;2.38;;;10.80;99.90;;;;;;5048482;28;20025;-76
2021/09/14 05:13:40;;;;;;;6.15;3.08;;;10.80;99.90;;;;;;5046698;28;20532;-80
2021/09/14 05:16:06;;;;;;;5.85;2.80;;;10.80;99.90;;;;;;5047441;28;20066;-74
2021/09/14 05:18:32;;;;;;;6.93;2.60;;;10.80;99.90;;;;;;5045910;28;20033;-73
2021/09/14 05:20:58;;;;;;;6.07;2.67;;;10.90;99.90;;;;;;5045700;28;20182;-74
2021/09/14 05:23:30;;;;;;;3.00;2.33;;;10.80;99.90;;;;;;5041629;28;20037;-74
2021/09/14 05:25:56;;;;;;;9.05;3.05;;;10.90;99.90;;;;;;5046510;28;20029;-73
2021/09/14 05:28:22;;;;;;;5.57;2.65;;;10.90;99.90;;;;;;5041408;28;20783;-73
2021/09/14 05:30:51;;;;;;;9.55;2.90;;;10.90;99.90;;;;;;5038931;28;20091;-73
2021/09/14 05:33:17;;;;;;;7.18;2.95;;;10.90;99.90;;;;;;5045962;28;20082;-73
2021/09/14 05:35:49;;;;;;;8.25;2.60;;;11.00;99.90;;;;;;5043778;28;20033;-73
2021/09/14 05:38:16;;;;;;;4.85;3.08;;;11.00;99.90;;;;;;5048243;28;20032;-73
2021/09/14 05:40:42;;;;;;;5.32;3.15;;;11.00;99.90;;;;;;5047977;28;20485;-73
2021/09/14 05:43:08;;;;;;;11.30;3.58;;;11.00;99.90;;;;;;5045899;28;20111;-74
2021/09/14 05:45:33;;;;;;;7.60;3.53;;;11.10;99.90;;;;;;5045118;28;20109;-73
2021/09/14 05:48:00;;;;;;;5.45;3.30;;;11.10;99.90;;;;;;5052083;28;20060;-73
2021/09/14 05:50:25;;;;;;;8.63;2.90;;;11.10;99.90;;;;;;5047760;28;20235;-73
2021/09/14 05:52:51;;;;;;;4.20;2.70;;;11.20;99.90;;;;;;5039685;28;20563;-73
2021/09/14 05:55:17;;;;;;;6.85;3.42;;;11.20;99.90;;;;;;5042500;28;20033;-73
2021/09/14 05:57:43;;;;;;;7.22;3.10;;;11.30;99.90;;;;;;5048039;28;20028;-73
2021/09/14 06:00:09;;;;;;;10.70;3.63;;;11.30;99.90;;;;;;5047701;28;20112;-73
2021/09/14 06:02:34;;;;;;;9.02;4.20;;;11.30;99.90;;;;;;5047648;28;20071;-73
2021/09/14 06:05:00;;;;;;;7.15;3.20;;;11.40;99.90;;;;;;5047047;28;20021;-73
2021/09/14 06:07:25;;;;;;;5.70;3.00;;;11.40;99.90;;;;;;5047540;28;20065;-73
2021/09/14 06:09:51;;;;;;;5.30;3.22;;;11.40;99.90;;;;;;5047939;28;20364;-73
2021/09/14 06:12:16;;;;;;;9.05;3.50;;;11.50;99.90;;;;;;5047767;28;20021;-73
2021/09/14 06:14:42;;;;;;;6.60;3.50;;;11.60;99.90;;;;;;5047125;28;20041;-73
2021/09/14 06:17:07;;;;;;;11.85;3.33;;;11.60;99.90;;;;;;5047950;28;20029;-73
2021/09/14 06:19:33;;;;;;;8.75;3.20;;;11.60;99.90;;;;;;5051958;28;20033;-73
2021/09/14 06:21:58;;;;;;;5.47;3.50;;;11.70;99.90;;;;;;5055683;28;20025;-73
2021/09/14 06:24:27;;;;;;;8.10;3.65;;;11.70;99.90;;;;;;5056752;28;20021;-73
2021/09/14 06:26:52;;;;;;;8.02;3.78;;;11.80;99.90;;;;;;5050417;28;20033;-73
2021/09/14 06:29:17;;;;;;;8.00;3.70;;;11.90;99.90;;;;;;5051216;28;20028;-74
2021/09/14 06:31:43;;;;;;;7.47;3.65;;;11.90;99.90;;;;;;5051851;28;20151;-73
2021/09/14 06:34:08;;;;;;;8.48;3.50;;;11.90;99.90;;;;;;5050117;28;20043;-72
2021/09/14 06:36:34;;;;;;;3.95;3.03;;;12.00;99.90;;;;;;5051099;28;20100;-73
2021/09/14 06:38:59;;;;;;;6.75;3.90;;;12.00;99.90;;;;;;5054448;28;20421;-73
2021/09/14 06:41:25;;;;;;;8.15;3.38;;;12.10;99.90;;;;;;5051172;28;20095;-73
2021/09/14 06:43:51;;;;;;;7.50;3.70;;;12.20;99.90;;;;;;5051528;28;20095;-73
2021/09/14 06:46:17;;;;;;;7.38;3.55;;;12.20;99.90;;;;;;5049600;28;20045;-73
2021/09/14 06:48:42;;;;;;;7.53;3.42;;;12.30;99.90;;;;;;5048349;28;20128;-73
2021/09/14 06:51:07;;;;;;;7.93;3.83;;;12.40;99.90;;;;;;5031260;28;20391;-73
2021/09/14 06:53:33;;;;;;;8.40;3.17;;;12.40;99.90;;;;;;5032610;28;20040;-74
2021/09/14 06:55:58;;;;;;;6.35;3.13;;;12.50;99.90;;;;;;5040208;28;20040;-74
2021/09/14 06:58:24;;;;;;;7.78;3.10;;;12.50;99.90;;;;;;5050237;28;20106;-73
2021/09/14 07:00:49;;;;;;;7.68;2.50;;;12.60;99.90;;;;;;5051224;28;20430;-73
2021/09/14 07:03:15;;;;;;;6.63;2.90;;;12.70;99.90;;;;;;5039953;28;20024;-73
2021/09/14 07:05:40;;;;;;;5.25;2.35;;;12.70;99.90;;;;;;5031567;28;20025;-73
2021/09/14 07:08:06;;;;;;;5.45;2.35;;;12.80;99.90;;;;;;5047807;28;20071;-73
2021/09/14 07:10:32;;;;;;;7.18;1.90;;;12.90;99.90;;;;;;5050895;28;20063;-73
2021/09/14 07:12:57;;;;;;;4.65;2.20;;;13.00;99.90;;;;;;5050741;28;20074;-73
2021/09/14 07:15:23;;;;;;;4.00;2.22;;;13.10;99.90;;;;;;5050951;28;20025;-73
2021/09/14 07:17:48;;;;;;;4.20;2.10;;;13.20;99.90;;;;;;5050553;28;20518;-73
2021/09/14 07:20:14;;;;;;;4.00;1.67;;;13.20;99.90;;;;;;5050853;28;20112;-73
2021/09/14 07:22:40;;;;;;;9.75;1.88;;;13.30;99.90;;;;;;5050233;28;20021;-73
2021/09/14 07:25:06;;;;;;;5.22;1.95;;;13.30;99.90;;;;;;5050190;28;20040;-73
2021/09/14 07:27:31;;;;;;;2.55;1.55;;;13.40;99.90;;;;;;5048901;28;20074;-73
2021/09/14 07:29:57;;;;;;;1.92;1.40;;;13.40;99.90;;;;;;5049601;28;20120;-74
2021/09/14 07:32:22;;;;;;;3.38;1.75;;;13.50;99.90;;;;;;5049474;28;20156;-73
2021/09/14 07:34:48;;;;;;;5.25;1.58;;;13.50;99.90;;;;;;5032630;28;20357;-73
2021/09/14 07:37:13;;;;;;;4.03;1.88;;;13.60;99.90;;;;;;5046436;28;20029;-73
2021/09/14 07:39:39;;;;;;;3.97;1.85;;;13.80;99.90;;;;;;5049326;28;20532;-73
2021/09/14 07:42:04;;;;;;;2.47;1.73;;;13.80;99.90;;;;;;5049692;28;20070;-73
2021/09/14 07:44:30;;;;;;;1.70;1.58;;;13.90;99.90;;;;;;5037234;28;20025;-74
2021/09/14 07:46:55;;;;;;;4.63;1.50;;;14.00;99.90;;;;;;5051616;28;20024;-73
2021/09/14 07:49:21;;;;;;;4.47;1.40;;;14.10;99.90;;;;;;5049933;28;20123;-73
2021/09/14 07:51:46;;;;;;;3.20;1.67;;;14.10;99.90;;;;;;5049743;28;20049;-73
2021/09/14 07:54:12;;;;;;;2.95;1.65;;;14.20;99.90;;;;;;5043159;28;20026;-73
2021/09/14 07:56:37;;;;;;;3.20;1.77;;;14.30;99.90;;;;;;5043792;28;20023;-73
2021/09/14 07:59:03;;;;;;;3.63;1.80;;;14.40;99.90;;;;;;5048984;28;20033;-73
2021/09/14 08:01:28;;;;;;;9.80;1.80;;;14.40;99.90;;;;;;5050104;28;20029;-74
2021/09/14 08:03:54;;;;;;;5.65;1.80;;;14.50;99.90;;;;;;5050728;28;20029;-73
2021/09/14 08:06:20;;;;;;;3.78;1.85;;;14.50;99.90;;;;;;5057500;28;20087;-74
2021/09/14 08:08:45;;;;;;;3.03;1.70;;;14.70;99.90;;;;;;5042771;28;20476;-73
2021/09/14 08:11:11;;;;;;;3.28;1.90;;;14.80;99.90;;;;;;5045326;28;20439;-73
2021/09/14 08:13:36;;;;;;;4.22;2.05;;;14.90;99.90;;;;;;5030584;28;20024;-73
2021/09/14 08:16:03;;;;;;;4.28;2.13;;;15.00;99.90;;;;;;5041347;28;20651;-74
2021/09/14 08:18:28;;;;;;;5.68;2.22;;;15.10;99.90;;;;;;5049911;28;20037;-74
2021/09/14 08:20:54;;;;;;;5.18;1.88;;;15.20;99.90;;;;;;5049412;28;20044;-74
2021/09/14 08:23:19;;;;;;;8.48;2.10;;;15.30;99.90;;;;;;5050608;28;20078;-74
2021/09/14 08:25:45;;;;;;;15.52;7.15;;;15.40;99.90;;;;;;5050137;28;20032;-74
2021/09/14 08:28:10;;;;;;;10.27;4.53;;;15.40;99.90;;;;;;5050222;28;20028;-73
2021/09/14 08:30:36;;;;;;;5.88;2.88;;;15.50;99.90;;;;;;5048999;28;20048;-75
2021/09/14 08:33:01;;;;;;;4.75;2.90;;;15.50;99.90;;;;;;5030620;28;20551;-74
2021/09/14 08:35:27;;;;;;;12.50;2.97;;;15.50;99.90;;;;;;5032364;28;21445;-73
2021/09/14 08:37:52;;;;;;;4.88;2.35;;;15.50;99.90;;;;;;5043508;28;20098;-74
2021/09/14 08:40:18;;;;;;;4.50;1.80;;;15.60;99.90;;;;;;5048939;28;20040;-74
2021/09/14 08:42:43;;;;;;;4.78;2.05;;;15.70;99.90;;;;;;5048928;28;20049;-73
2021/09/14 08:45:10;;;;;;;6.80;2.22;;;15.70;99.90;;;;;;5049308;28;20024;-74
2021/09/14 08:47:37;;;;;;;3.40;1.70;;;15.70;99.90;;;;;;5048307;28;20079;-74
2021/09/14 08:50:05;;;;;;;12.55;2.13;;;15.90;99.90;;;;;;5048503;28;20147;-74
2021/09/14 08:52:32;;;;;;;3.15;1.73;;;16.00;99.90;;;;;;5049049;28;20049;-74
2021/09/14 08:54:57;;;;;;;5.90;1.75;;;16.10;99.90;;;;;;5052265;28;20024;-74
2021/09/14 08:57:23;;;;;;;3.30;1.88;;;16.20;99.90;;;;;;5048489;28;20051;-74
2021/09/14 08:59:48;;;;;;;2.67;1.65;;;16.20;99.90;;;;;;5045977;28;20458;-74
2021/09/14 09:02:16;;;;;;;2.53;1.90;;;16.30;99.90;;;;;;5048495;28;20347;-73
2021/09/14 09:04:57;;;;;;;6.25;1.95;;;16.40;99.90;;;;;;5036193;28;20510;-73
2021/09/14 09:07:36;;;;;;;2.67;1.90;;;16.50;99.90;;;;;;5047203;28;20116;-74
2021/09/14 09:10:17;;;;;;;2.95;1.98;;;16.60;99.90;;;;;;5045649;28;20042;-74
2021/09/14 09:12:46;;;;;;;4.50;2.28;;;16.60;99.90;;;;;;5048855;28;20511;-74
2021/09/14 09:15:33;;;;;;;4.15;1.75;;;16.70;99.90;;;;;;5046006;28;20023;-74
2021/09/14 09:18:04;;;;;;;5.15;1.80;;;16.80;99.90;;;;;;5047183;28;20102;-75
2021/09/14 09:20:32;;;;;;;2.38;1.67;;;16.80;99.90;;;;;;5047998;28;20033;-74
2021/09/14 09:23:00;;;;;;;4.75;1.48;;;16.90;99.90;;;;;;5047927;28;20108;-79
2021/09/14 09:25:26;;;;;;;9.00;2.40;;;16.90;99.90;;;;;;5047589;28;20803;-75
2021/09/14 09:28:08;;;;;;;7.13;2.10;;;16.90;99.90;;;;;;5047933;28;20112;-74
2021/09/14 09:30:38;;;;;;;3.60;1.45;;;17.00;99.90;;;;;;5048077;28;20499;-75
2021/09/14 09:33:07;;;;;;;2.58;1.70;;;17.10;99.90;;;;;;5029170;28;20039;-74
2021/09/14 09:35:35;;;;;;;12.57;1.75;;;17.20;99.90;;;;;;5041583;28;20380;-74
2021/09/14 09:38:02;;;;;;;4.45;1.52;;;17.30;99.90;;;;;;5048168;28;20037;-74
2021/09/14 09:40:33;;;;;;;5.03;1.98;;;17.40;99.90;;;;;;5047103;28;20046;-74
2021/09/14 09:43:04;;;;;;;3.80;1.95;;;17.50;99.90;;;;;;5046099;28;20055;-74
2021/09/14 09:45:30;;;;;;;3.30;2.10;;;17.60;99.90;;;;;;5036704;28;20037;-74
2021/09/14 09:47:56;;;;;;;2.83;1.70;;;17.70;99.90;;;;;;5030528;28;20395;-74
2021/09/14 09:50:22;;;;;;;3.25;1.95;;;17.80;99.90;;;;;;5047812;28;20053;-73
2021/09/14 09:52:48;;;;;;;5.63;2.05;;;17.90;99.90;;;;;;5047417;28;20037;-74
2021/09/14 09:55:13;;;;;;;5.50;1.80;;;18.00;99.90;;;;;;5048085;28;20438;-73
2021/09/14 09:57:39;;;;;;;7.30;1.92;;;18.10;99.90;;;;;;5047563;28;20025;-73
2021/09/14 10:00:13;;;;;;;5.30;1.67;;;18.10;99.90;;;;;;5046244;28;20033;-73
2021/09/14 10:02:44;;;;;;;1.92;1.27;;;18.20;99.90;;;;;;5048934;28;20426;-74
2021/09/14 10:05:11;;;;;;;3.20;1.80;;;18.40;99.90;;;;;;5048477;28;20537;-73
2021/09/14 10:07:40;;;;;;;4.63;1.85;;;18.50;99.90;;;;;;5048038;28;20072;-73
2021/09/14 10:10:06;;;;;;;5.50;1.83;;;18.60;99.90;;;;;;5047797;28;20033;-73
2021/09/14 10:12:34;;;;;;;4.72;1.60;;;18.70;99.90;;;;;;5046444;28;20037;-73
2021/09/14 10:15:12;;;;;;;4.93;1.70;;;18.70;99.90;;;;;;5044381;28;20033;-74
2021/09/14 10:17:52;;;;;;;5.28;2.10;;;18.80;99.90;;;;;;5046855;28;20433;-73
2021/09/14 10:20:24;;;;;;;2.47;1.80;;;19.00;99.90;;;;;;5051705;28;20029;-73
2021/09/14 10:23:01;;;;;;;2.50;1.65;;;19.10;99.90;;;;;;5046931;28;20040;-74
2021/09/14 10:25:27;;;;;;;2.80;1.70;;;19.30;99.90;;;;;;5047641;28;20041;-74
2021/09/14 10:27:52;;;;;;;5.25;2.22;;;19.30;99.20;;;;;;5047826;28;20391;-74
2021/09/14 10:30:24;;;;;;;3.50;2.38;;;19.30;99.90;;;;;;5047552;28;20029;-73
2021/09/14 10:32:49;;;;;;;;;;;19.30;97.60;;;;;;5047021;28;20027;-73
2021/09/14 10:35:26;;;;;;;5.22;2.15;;;19.40;98.10;;;;;;5047894;28;19916;-74
2021/09/14 10:38:02;;;;;;;2.85;1.83;;;19.50;98.20;;;;;;5048362;28;20037;-74
2021/09/14 10:40:37;;;;;;;4.32;2.00;;;19.70;99.90;;;;;;5042473;28;20148;-74
2021/09/14 10:43:02;;;;;;;7.57;1.80;;;19.80;97.20;;;;;;5035522;28;20381;-74
2021/09/14 10:45:39;;;;;;;3.90;1.70;;;20.00;96.00;;;;;;5048259;28;20025;-74
2021/09/14 10:48:04;;;;;;;5.25;1.88;;;20.30;95.40;;;;;;5047350;28;20075;-74
2021/09/14 10:50:32;;;;;;;4.72;2.10;;;20.50;95.60;;;;;;5045092;28;20491;-74
2021/09/14 10:53:02;;;;;;;2.25;2.00;;;20.50;93.90;;;;;;5044710;28;20045;-74
2021/09/14 10:55:29;;;;;;;4.20;1.83;;;20.60;94.70;;;;;;5045519;28;20457;-74
2021/09/14 10:57:59;;;;;;;3.53;1.83;;;20.60;91.90;;;;;;5045968;28;20522;-74
2021/09/14 11:00:31;;;;;;;2.65;1.85;;;20.80;93.60;;;;;;5037724;28;20061;-73
2021/09/14 11:02:58;;;;;;;3.70;2.05;;;21.10;91.10;;;;;;5045251;28;20037;-73
2021/09/14 11:05:29;;;;;;;2.60;1.73;;;21.30;91.50;;;;;;5051522;28;20441;-74
2021/09/14 11:08:05;;;;;;;3.20;1.63;;;21.40;93.60;;;;;;5051241;28;20540;-73
2021/09/14 11:10:36;;;;;;;6.05;2.20;;;21.60;92.10;;;;;;5043938;28;20061;-74
2021/09/14 11:13:03;;;;;;;3.40;2.17;;;21.80;90.70;;;;;;5051759;28;20025;-73
2021/09/14 11:15:29;;;;;;;3.67;1.90;;;22.00;86.80;;;;;;5051212;28;20025;-73
2021/09/14 11:17:54;;;;;;;3.80;1.70;;;22.20;83.60;;;;;;5050938;28;20060;-74
2021/09/14 11:20:25;;;;;;;3.25;1.90;;;22.40;89.60;;;;;;5050694;28;20557;-74
2021/09/14 11:22:51;;;;;;;3.90;2.10;;;22.70;83.80;;;;;;5050496;28;20054;-74
2021/09/14 11:25:19;;;;;;;2.92;1.80;;;22.90;82.20;;;;;;5050851;28;20263;-74
2021/09/14 11:27:54;;;;;;;2.55;2.00;;;23.10;80.50;;;;;;5051052;28;20055;-73
2021/09/14 11:30:20;;;;;;;2.42;1.80;;;23.40;82.90;;;;;;5048155;28;20032;-74
2021/09/14 11:32:47;;;;;;;2.30;1.70;;;23.60;80.20;;;;;;5046956;28;20519;-74
2021/09/14 11:35:13;;;;;;;2.10;1.75;;;23.70;78.90;;;;;;5031008;28;20022;-74
2021/09/14 11:37:38;;;;;;;2.88;1.83;;;23.50;75.50;;;;;;5047993;28;20075;-74
2021/09/14 11:40:15;;;;;;;3.85;1.80;;;23.30;79.50;;;;;;5050799;28;20477;-73
2021/09/14 11:42:51;;;;;;;2.53;1.98;;;22.90;76.90;;;;;;5050699;28;20171;-75
2021/09/14 11:45:16;;;;;;;4.90;2.50;;;22.40;78.80;;;;;;5057507;28;20509;-74
2021/09/14 11:47:43;;;;;;;3.03;2.10;;;22.00;77.20;;;;;;5050279;28;20116;-74
2021/09/14 11:50:10;;;;;;;4.70;2.08;;;21.60;81.60;;;;;;5036327;28;20097;-74
2021/09/14 11:52:35;;;;;;;3.70;2.17;;;21.50;82.00;;;;;;5049865;28;20496;-74
2021/09/14 11:55:08;;;;;;;10.50;2.47;;;22.20;78.90;;;;;;5049782;28;20100;-74
2021/09/14 11:57:33;;;;;;;7.18;2.10;;;22.60;77.50;;;;;;5043388;28;20039;-74
2021/09/14 12:00:10;;;;;;;1.83;1.60;;;23.00;77.10;;;;;;5040953;28;20029;-74
2021/09/14 12:02:36;;;;;;;2.88;2.05;;;23.50;79.10;;;;;;5051197;28;20456;-74
2021/09/14 12:05:01;;;;;;;6.35;2.25;;;23.50;76.00;;;;;;5049842;28;20387;-74
2021/09/14 12:07:27;;;;;;;4.45;1.83;;;23.10;75.30;;;;;;5050219;28;20024;-74
2021/09/14 12:10:04;;;;;;;3.22;2.00;;;22.70;78.00;;;;;;5050390;28;20048;-74
2021/09/14 12:12:30;;;;;;;4.95;2.40;;;22.40;79.80;;;;;;5049338;28;20021;-74
2021/09/14 12:14:56;;;;;;;3.70;2.30;;;22.40;83.20;;;;;;5046042;28;20800;-73
2021/09/14 12:17:28;;;;;;;5.68;2.08;;;23.40;78.70;;;;;;5039359;28;20029;-73
2021/09/14 12:19:53;;;;;;;3.65;2.00;;;23.90;74.00;;;;;;5050441;28;20033;-74
2021/09/14 12:22:19;;;;;;;4.65;2.00;;;23.70;76.00;;;;;;5049718;28;20364;-75
2021/09/14 12:24:45;;;;;;;5.60;2.33;;;;;;;;;;5045971;28;20667;-75
2021/09/14 12:27:11;;;;;;;2.70;1.70;;;;;;;;;;5049214;28;20033;-74
2021/09/14 12:29:36;;;;;;;4.32;1.77;;;;;;;;;;5049071;28;20021;-74
2021/09/14 12:32:03;;;;;;;3.58;2.00;;;23.80;75.10;;;;;;5049486;28;20056;-75
2021/09/14 12:34:29;;;;;;;1.92;1.60;;;;;;;;;;5049509;28;20021;-74
2021/09/14 12:36:55;;;;;;;4.80;1.85;;;;;;;;;;5048858;28;20062;-75
2021/09/14 12:39:21;;;;;;;4.22;1.90;;;;;;;;;;5049326;28;20500;-74
2021/09/14 12:41:47;;;;;;;2.13;1.65;;;;;;;;;;5049144;28;20040;-74
2021/09/14 12:44:13;;;;;;;3.28;1.70;;;;;;;;;;5046306;28;20025;-74
2021/09/14 12:46:39;;;;;;;4.07;2.00;;;;;;;;;;5046269;28;20550;-74
2021/09/14 12:49:05;;;;;;;6.00;1.80;;;;;;;;;;5049264;28;20039;-74
2021/09/14 12:51:31;;;;;;;4.32;2.00;;;;;;;;;;5049653;28;20132;-74
2021/09/14 12:53:57;;;;;;;2.45;1.73;;;;;;;;;;5046411;28;20025;-74
2021/09/14 12:56:23;;;;;;;9.82;2.25;;;;;;;;;;5040524;28;20475;-74
2021/09/14 12:58:49;;;;;;;2.13;1.67;;;;;;;;;;5044310;28;20041;-74
2021/09/14 13:01:15;;;;;;;4.43;1.80;;;;;;;;;;5035491;28;20090;-75
2021/09/14 13:03:41;;;;;;;2.55;2.08;;;;;;;;;;5048312;28;20108;-75
2021/09/14 13:06:07;;;;;;;4.63;2.03;;;;;;;;;;5048632;28;20170;-72
2021/09/14 13:08:33;;;;;;;2.85;1.95;;;;;;;;;;5047270;28;20033;-75
2021/09/14 13:10:59;;;;;;;2.60;2.03;;;;;;;;;;5046906;28;20503;-78
2021/09/14 13:16:10;;;;;;;3.75;2.33;;;;;;;;;;5035978;28;20128;-78
2021/09/14 13:18:36;;;;;;;2.55;1.70;;;;;;;;;;5041725;28;20956;-78
2021/09/14 13:21:04;;;;;;;3.17;1.75;;;;;;;;;;5047652;28;20025;-78
2021/09/14 13:23:30;;;;;;;2.38;1.80;;;;;;;;;;5043892;28;20094;-78
2021/09/14 13:25:56;;;;;;;2.53;1.88;;;;;;;;;;5049182;28;20268;-77
2021/09/14 13:28:21;;;;;;;4.43;1.98;;;;;;;;;;5050861;28;20028;-75
2021/09/14 13:30:48;;;;;;;3.28;1.65;;;;;;;;;;5045188;28;20108;-75
2021/09/14 13:33:14;;;;;;;2.28;2.08;;;;;;;;;;5049066;28;20031;-77
2021/09/14 13:35:40;;;;;;;3.53;1.73;;;;;;;;;;5049539;28;20463;-75
2021/09/14 13:38:06;;;;;;;2.00;1.80;;;;;;;;;;5041945;28;20030;-75
2021/09/14 13:40:32;;;;;;;4.53;2.10;;;;;;;;;;5040101;28;20494;-77
2021/09/14 13:42:59;;;;;;;3.85;2.30;;;;;;;;;;5046192;28;20032;-77
2021/09/14 13:48:10;;;;;;;2.95;1.90;;;;;;;;;;5042329;28;20160;-77
2021/09/14 13:50:41;;;;;;;2.92;1.80;;;;;;;;;;5035995;28;20521;-77
2021/09/14 13:53:07;;;;;;;3.67;2.55;;;;;;;;;;5046322;28;20037;-77